createdAt,value
2023-05-21T00:02:56.998Z,93756.19
2023-05-21T00:06:02.097Z,93755.66
2023-05-21T00:09:07.200Z,93754.31
2023-05-21T00:12:10.742Z,93763.09
2023-05-21T00:15:14.370Z,93755.00
2023-05-21T00:18:17.738Z,93758.53
2023-05-21T00:21:23.612Z,93758.78
2023-05-21T00:24:26.961Z,93759.53
2023-05-21T00:27:29.971Z,93754.81
2023-05-21T00:30:32.912Z,93756.44
2023-05-21T00:33:35.898Z,93759.16
2023-05-21T00:36:41.583Z,93754.53
2023-05-21T00:39:44.521Z,93743.28
2023-05-21T00:42:48.624Z,93745.41
2023-05-21T00:45:54.292Z,93748.78
2023-05-21T00:48:58.570Z,93746.19
2023-05-21T00:52:02.142Z,93742.25
2023-05-21T00:55:10.160Z,93730.94
2023-05-21T00:58:13.320Z,93730.91
2023-05-21T01:01:18.859Z,93731.59
2023-05-21T01:04:26.774Z,93726.88
2023-05-21T01:07:30.358Z,93729.66
2023-05-21T01:10:34.211Z,93722.94
2023-05-21T01:13:41.862Z,93722.94
2023-05-21T01:16:47.328Z,93712.84
2023-05-21T01:19:51.028Z,93716.84
2023-05-21T01:22:57.802Z,93710.09
2023-05-21T01:26:01.654Z,93713.41
2023-05-21T01:29:05.996Z,93714.69
2023-05-21T01:32:17.850Z,93709.16
2023-05-21T01:35:26.927Z,93703.03
2023-05-21T01:38:57.148Z,93700.31
2023-05-21T01:42:04.108Z,93694.31
2023-05-21T01:45:08.661Z,93703.75
2023-05-21T01:48:13.610Z,93697.41
2023-05-21T01:51:17.746Z,93686.84
2023-05-21T01:54:22.538Z,93694.63
2023-05-21T01:57:27.298Z,93693.69
2023-05-21T02:00:33.079Z,93693.66
2023-05-21T02:03:36.699Z,93686.94
2023-05-21T02:06:42.306Z,93694.66
2023-05-21T02:09:45.897Z,93694.56
2023-05-21T02:12:48.960Z,93696.06
2023-05-21T02:15:56.098Z,93695.66
2023-05-21T02:19:01.099Z,93691.13
2023-05-21T02:22:05.407Z,93682.63
2023-05-21T02:25:10.739Z,93684.28
2023-05-21T02:28:14.068Z,93676.72
2023-05-21T02:31:17.875Z,93681.75
2023-05-21T02:34:22.143Z,93680.59
2023-05-21T02:37:30.054Z,93670.91
2023-05-21T02:40:34.326Z,93680.59
2023-05-21T02:43:37.739Z,93688.91
2023-05-21T02:46:42.076Z,93673.94
2023-05-21T02:49:46.174Z,93665.25
2023-05-21T02:52:50.759Z,93671.22
2023-05-21T02:55:54.554Z,93664.06
2023-05-21T02:58:58.767Z,93666.28
2023-05-21T03:02:02.825Z,93647.66
2023-05-21T03:05:07.661Z,93662.19
2023-05-21T03:08:11.344Z,93658.16
2023-05-21T03:11:16.636Z,93651.09
2023-05-21T03:14:20.605Z,93658.66
2023-05-21T03:17:24.566Z,93656.88
2023-05-21T03:20:28.771Z,93655.97
2023-05-21T03:23:33.099Z,93649.50
2023-05-21T03:26:37.350Z,93650.34
2023-05-21T03:29:41.709Z,93637.53
2023-05-21T03:32:45.639Z,93636.25
2023-05-21T03:35:49.297Z,93630.88
2023-05-21T03:38:52.431Z,93627.72
2023-05-21T03:41:56.992Z,93617.53
2023-05-21T03:45:19.482Z,93621.22
2023-05-21T03:48:41.795Z,93626.75
2023-05-21T03:51:48.872Z,93625.84
2023-05-21T03:54:54.624Z,93618.34
2023-05-21T03:57:59.432Z,93615.06
2023-05-21T04:01:05.233Z,93601.28
2023-05-21T04:04:09.773Z,93596.84
2023-05-21T04:07:15.917Z,93596.25
2023-05-21T04:10:19.622Z,93591.50
2023-05-21T04:13:25.006Z,93583.34
2023-05-21T04:16:28.428Z,93581.91
2023-05-21T04:19:34.063Z,93574.25
2023-05-21T04:22:39.619Z,93574.75
2023-05-21T04:25:45.315Z,93580.09
2023-05-21T04:28:48.407Z,93570.84
2023-05-21T04:31:52.020Z,93572.34
2023-05-21T04:34:56.240Z,93567.41
2023-05-21T04:38:02.330Z,93562.81
2023-05-21T04:41:07.996Z,93565.13
2023-05-21T04:44:11.560Z,93561.53
2023-05-21T04:47:15.852Z,93556.22
2023-05-21T04:50:19.341Z,93549.47
2023-05-21T04:53:24.332Z,93542.53
2023-05-21T04:56:28.319Z,93544.06
2023-05-21T04:59:33.085Z,93536.47
2023-05-21T05:02:36.834Z,93533.16
2023-05-21T05:05:41.942Z,93534.53
2023-05-21T05:08:47.321Z,93515.78
2023-05-21T05:11:52.315Z,93515.06
2023-05-21T05:14:55.400Z,93515.19
2023-05-21T05:18:00.010Z,93518.81
2023-05-21T05:21:05.013Z,93517.59
2023-05-21T05:24:08.545Z,93508.69
2023-05-21T05:27:11.681Z,93514.34
2023-05-21T05:30:14.829Z,93512.56
2023-05-21T05:33:18.723Z,93491.63
2023-05-21T05:36:23.353Z,93493.94
2023-05-21T05:39:28.108Z,93487.31
2023-05-21T05:42:32.495Z,93490.44
2023-05-21T05:45:46.722Z,93486.47
2023-05-21T05:48:51.623Z,93477.03
2023-05-21T05:51:55.611Z,93484.53
2023-05-21T05:55:03.079Z,93476.91
2023-05-21T05:58:07.209Z,93459.84
2023-05-21T06:01:25.202Z,93468.13
2023-05-21T06:04:30.795Z,93470.59
2023-05-21T06:07:34.206Z,93457.84
2023-05-21T06:10:37.999Z,93451.03
2023-05-21T06:13:41.011Z,93453.66
2023-05-21T06:16:45.865Z,93436.81
2023-05-21T06:19:48.963Z,93449.91
2023-05-21T06:22:53.037Z,93440.34
2023-05-21T06:25:56.458Z,93442.16
2023-05-21T06:29:01.934Z,93438.56
2023-05-21T06:32:08.989Z,93448.09
2023-05-21T06:35:12.877Z,93433.22
2023-05-21T06:38:15.888Z,93441.31
2023-05-21T06:41:19.345Z,93429.66
2023-05-21T06:44:26.780Z,93424.16
2023-05-21T06:47:42.026Z,93421.69
2023-05-21T06:50:45.186Z,93416.44
2023-05-21T06:53:49.195Z,93412.06
2023-05-21T06:56:53.719Z,93417.63
2023-05-21T06:59:58.595Z,93427.53
2023-05-21T07:03:06.806Z,93404.47
2023-05-21T07:06:10.350Z,93411.59
2023-05-21T07:09:20.322Z,93402.06
2023-05-21T07:12:24.683Z,93400.03
2023-05-21T07:15:28.606Z,93398.41
2023-05-21T07:18:32.771Z,93392.34
2023-05-21T07:21:37.249Z,93390.72
2023-05-21T07:24:43.505Z,93377.09
2023-05-21T07:27:46.663Z,93389.84
2023-05-21T07:30:50.105Z,93393.25
2023-05-21T07:33:58.230Z,93385.81
2023-05-21T07:37:05.396Z,93404.22
2023-05-21T07:40:09.042Z,93385.66
2023-05-21T07:43:14.695Z,93375.69
2023-05-21T07:46:18.287Z,93372.25
2023-05-21T07:49:23.760Z,93376.03
2023-05-21T07:52:28.834Z,93367.66
2023-05-21T07:55:32.201Z,93358.13
2023-05-21T07:58:35.734Z,93359.56
2023-05-21T08:01:39.390Z,93351.97
2023-05-21T08:04:43.779Z,93363.16
2023-05-21T08:07:47.748Z,93358.84
2023-05-21T08:10:50.894Z,93352.91
2023-05-21T08:13:56.407Z,93350.31
2023-05-21T08:17:00.268Z,93352.00
2023-05-21T08:20:04.247Z,93346.66
2023-05-21T08:23:12.975Z,93340.78
2023-05-21T08:26:23.420Z,93351.25
2023-05-21T08:29:27.361Z,93343.19
2023-05-21T08:32:33.078Z,93337.94
2023-05-21T08:35:37.436Z,93333.78
2023-05-21T08:39:06.940Z,93344.25
2023-05-21T08:42:36.385Z,93352.28
2023-05-21T08:45:43.919Z,93341.56
2023-05-21T08:48:48.517Z,93342.19
2023-05-21T08:51:54.302Z,93345.66
2023-05-21T08:54:58.739Z,93340.94
2023-05-21T08:58:05.998Z,93331.88
2023-05-21T09:01:11.230Z,93326.50
2023-05-21T09:04:20.915Z,93325.44
2023-05-21T09:07:29.798Z,93327.22
2023-05-21T09:10:51.875Z,93325.25
2023-05-21T09:14:00.990Z,93312.75
2023-05-21T09:17:20.745Z,93327.13
2023-05-21T09:20:34.114Z,93326.31
2023-05-21T09:23:39.449Z,93313.63
2023-05-21T09:26:45.724Z,93319.00
2023-05-21T09:29:49.580Z,93313.84
2023-05-21T09:32:59.638Z,93306.94
2023-05-21T09:36:03.366Z,93308.44
2023-05-21T09:39:06.550Z,93305.63
2023-05-21T09:42:11.952Z,93311.81
2023-05-21T09:45:26.790Z,93306.66
2023-05-21T09:48:43.364Z,93310.34
2023-05-21T09:51:50.972Z,93306.88
2023-05-21T09:54:55.249Z,93299.09
2023-05-21T09:57:59.633Z,93319.00
2023-05-21T10:01:02.808Z,93307.19
2023-05-21T10:04:10.075Z,93307.75
2023-05-21T10:07:14.336Z,93296.50
2023-05-21T10:10:19.918Z,93296.56
2023-05-21T10:13:24.628Z,93293.84
2023-05-21T10:16:29.576Z,93302.69
2023-05-21T10:19:37.279Z,93302.81
2023-05-21T10:22:41.535Z,93297.03
2023-05-21T10:25:46.591Z,93296.00
2023-05-21T10:28:52.157Z,93303.44
2023-05-21T10:31:55.682Z,93297.97
2023-05-21T10:35:01.353Z,93290.53
2023-05-21T10:38:06.218Z,93292.03
2023-05-21T10:41:12.197Z,93299.19
2023-05-21T10:44:41.404Z,93297.28
2023-05-21T10:48:06.890Z,93298.84
2023-05-21T10:51:49.035Z,93301.38
2023-05-21T10:55:16.910Z,93300.13
2023-05-21T10:59:01.904Z,93292.03
2023-05-21T11:02:06.947Z,93301.88
2023-05-21T11:14:59.012Z,93300.47
2023-05-21T18:43:14.753Z,93369.72
2023-05-21T18:46:18.288Z,93370.34
2023-05-21T18:49:22.592Z,93366.94
2023-05-21T18:52:26.637Z,93365.56
2023-05-21T18:55:30.386Z,93359.50
2023-05-21T18:58:34.791Z,93372.91
2023-05-21T19:01:40.809Z,93368.84
2023-05-21T19:04:45.065Z,93367.50
2023-05-21T19:07:48.925Z,93360.75
2023-05-21T19:10:53.586Z,93362.03
2023-05-21T19:13:57.767Z,93366.03
2023-05-21T19:17:01.406Z,93362.66
2023-05-21T19:20:06.371Z,93354.56
2023-05-21T19:23:10.418Z,93359.94
2023-05-21T19:26:14.950Z,93362.56
2023-05-21T19:29:18.178Z,93359.84
2023-05-21T19:32:24.520Z,93365.84
2023-05-21T19:35:28.208Z,93353.69
2023-05-21T19:38:32.571Z,93358.94
2023-05-21T19:41:36.327Z,93360.22
2023-05-21T19:44:43.914Z,93362.88
2023-05-21T19:47:47.591Z,93365.50
2023-05-21T19:50:51.752Z,93356.63
2023-05-21T19:53:55.618Z,93349.94
2023-05-21T19:56:59.930Z,93356.56
2023-05-21T20:00:04.994Z,93357.19
2023-05-21T20:03:18.102Z,93356.47
2023-05-21T20:06:21.994Z,93357.13
2023-05-21T20:09:26.032Z,93349.72
2023-05-21T20:12:30.241Z,93353.63
2023-05-21T20:15:35.153Z,93352.91
2023-05-21T20:18:38.895Z,93347.50
2023-05-21T20:21:43.223Z,93336.78
2023-05-21T20:24:46.930Z,93354.31
2023-05-21T20:27:51.018Z,93347.53
2023-05-21T20:30:59.794Z,93351.44
2023-05-21T20:34:08.268Z,93350.66
2023-05-21T20:37:13.030Z,93350.59
2023-05-21T20:40:16.870Z,93341.22
2023-05-21T20:43:20.619Z,93336.44
2023-05-21T20:46:24.790Z,93336.41
2023-05-21T20:49:28.878Z,93339.00
2023-05-21T20:52:32.794Z,93330.25
2023-05-21T20:55:36.497Z,93330.25
2023-05-21T20:58:40.907Z,93327.56
2023-05-21T21:01:44.755Z,93328.91
2023-05-21T21:04:50.065Z,93320.94
2023-05-21T21:07:55.902Z,93321.59
2023-05-21T21:11:00.507Z,93324.31
2023-05-21T21:14:04.345Z,93321.00
2023-05-21T21:17:08.784Z,93313.66
2023-05-21T21:20:13.415Z,93316.44
2023-05-21T21:23:17.659Z,93316.47
2023-05-21T21:26:22.724Z,93313.19
2023-05-21T21:29:26.482Z,93317.94
2023-05-21T21:32:30.413Z,93313.34
2023-05-21T21:35:34.322Z,93323.50
2023-05-21T21:38:38.181Z,93324.28
2023-05-21T21:41:43.128Z,93320.34
2023-05-21T21:44:47.146Z,93323.84
2023-05-21T21:47:50.541Z,93318.56
2023-05-21T21:50:54.538Z,93323.94
2023-05-21T21:53:58.704Z,93320.63
2023-05-21T21:57:02.747Z,93324.75
2023-05-21T22:00:12.091Z,93322.81
2023-05-21T22:03:17.085Z,93321.84
2023-05-21T22:06:20.929Z,93328.63
2023-05-21T22:09:25.146Z,93329.88
2023-05-21T22:12:29.951Z,93328.41
2023-05-21T22:15:33.549Z,93337.19
2023-05-21T22:18:42.712Z,93332.44
2023-05-21T22:21:46.970Z,93341.91
2023-05-21T22:24:51.229Z,93337.25
2023-05-21T22:27:55.306Z,93341.25
2023-05-21T22:31:00.051Z,93333.91
2023-05-21T22:34:03.962Z,93341.41
2023-05-21T22:37:08.068Z,93336.16
2023-05-21T22:40:12.233Z,93323.31
2023-05-21T22:43:15.984Z,93325.28
2023-05-21T22:46:19.847Z,93334.88
2023-05-21T22:49:23.927Z,93337.50
2023-05-21T22:52:29.363Z,93329.41
2023-05-21T22:55:33.477Z,93329.41
2023-05-21T22:58:37.315Z,93329.44
2023-05-21T23:01:42.040Z,93322.72
2023-05-21T23:04:46.029Z,93326.13
2023-05-21T23:07:50.545Z,93330.16
2023-05-21T23:10:54.586Z,93331.56
2023-05-21T23:13:59.289Z,93323.47
2023-05-21T23:17:03.069Z,93324.19
2023-05-21T23:20:09.706Z,93325.47
2023-05-21T23:23:13.901Z,93324.81
2023-05-21T23:26:18.266Z,93321.44
2023-05-21T23:29:22.420Z,93318.78
2023-05-21T23:32:26.338Z,93319.47
2023-05-21T23:35:30.184Z,93313.41
2023-05-21T23:38:33.987Z,93305.34
2023-05-21T23:41:38.183Z,93310.03
2023-05-21T23:44:42.437Z,93302.63
2023-05-21T23:47:46.662Z,93297.88
2023-05-21T23:50:50.744Z,93298.56
2023-05-21T23:53:54.616Z,93301.22
2023-05-21T23:56:58.391Z,93297.19
